Time;durP1;ratioP1;P1;durP2;ratioP2;P2;SDS_P1;SDS_P2;PMS_P1;PMS_P2;Temp;Humidity;BMP_temperature;BMP_pressure;BME280_temperature;BME280_humidity;BME280_pressure;Samples;Min_cycle;Max_cycle;Signal;HPM_P1;HPM_P2
2022/10/18 12:10:17;;;;;;;5.50;3.07;;;;;;;20.82;61.60;63395.41;17444842;27;20645;-33
2022/10/18 12:18:41;;;;;;;4.43;2.63;;;;;;;20.85;61.56;63396.75;17340044;27;20316;-33
2022/10/18 12:27:01;;;;;;;3.97;2.20;;;;;;;20.88;61.57;63400.13;17358728;28;20219;-33
2022/10/18 12:35:19;;;;;;;4.13;2.37;;;;;;;20.90;61.54;63405.00;17348852;28;20235;-33
2022/10/18 12:43:38;;;;;;;4.10;2.10;;;;;;;20.94;61.42;63408.38;17301063;28;20298;-33
2022/10/18 12:51:57;;;;;;;4.50;2.47;;;;;;;20.96;61.60;63416.47;17327841;28;20288;-33
2022/10/18 13:00:52;;;;;;;6.53;4.33;;;;;;;20.97;61.42;63414.38;17369630;28;20216;-33
2022/10/18 13:09:19;;;;;;;4.97;2.70;;;;;;;20.97;61.51;63417.00;17312860;28;20610;-33
2022/10/18 13:17:45;;;;;;;4.20;1.93;;;;;;;20.97;61.47;63411.75;17270761;28;20259;-33
2022/10/18 13:26:15;;;;;;;4.60;2.43;;;;;;;20.98;61.65;63415.53;17262940;28;20263;-35
2022/10/18 13:34:37;;;;;;;4.27;2.10;;;;;;;21.08;61.26;63424.16;17276700;28;20225;-34
2022/10/18 13:42:55;;;;;;;3.93;2.10;;;;;;;21.14;60.95;63434.13;17279294;28;20225;-34
2022/10/18 13:51:44;;;;;;;4.23;2.33;;;;;;;21.18;61.03;63437.50;17306856;28;20201;-34
2022/10/18 14:00:27;;;;;;;4.00;2.10;;;;;;;21.25;60.89;63445.97;17310012;28;20228;-34
2022/10/18 14:08:49;;;;;;;4.10;2.20;;;;;;;21.21;61.17;63441.47;17268011;28;20302;-34
2022/10/18 14:17:19;;;;;;;4.17;2.10;;;;;;;21.20;61.41;63440.34;17258914;28;20232;-34
2022/10/18 14:25:37;;;;;;;3.97;1.90;;;;;;;21.34;61.13;63455.56;17264411;28;20286;-34
2022/10/18 14:33:57;;;;;;;4.27;2.17;;;;;;;21.34;61.01;63450.88;17276589;28;20233;-34
2022/10/18 14:42:21;;;;;;;4.03;2.47;;;;;;;21.36;61.13;63455.22;17306180;28;20261;-34
2022/10/18 14:50:39;;;;;;;4.13;2.17;;;;;;;21.39;61.05;63463.31;17310110;28;20201;-34
2022/10/18 14:58:58;;;;;;;3.50;1.83;;;;;;;21.43;60.96;63465.19;17284243;28;20232;-34
2022/10/18 15:07:17;;;;;;;4.30;2.30;;;;;;;21.42;61.21;63461.44;17304346;28;20378;-34
2022/10/18 15:15:35;;;;;;;3.80;2.00;;;;;;;21.44;61.18;63461.63;17305047;28;20228;-34
2022/10/18 15:23:54;;;;;;;4.57;2.47;;;;;;;21.37;61.37;63456.34;17270972;28;20374;-34
2022/10/18 15:32:20;;;;;;;3.90;2.03;;;;;;;21.31;61.78;63446.94;17284785;28;20220;-34
2022/10/18 15:40:41;;;;;;;4.90;2.60;;;;;;;21.27;61.92;63448.25;17288832;28;20227;-34
2022/10/18 15:49:49;;;;;;;6.37;2.43;;;;;;;21.25;61.81;63440.72;17307911;28;20215;-33
2022/10/18 15:58:16;;;;;;;3.90;2.03;;;;;;;21.27;62.13;63443.00;17291580;28;20458;-33
2022/10/18 16:06:34;;;;;;;6.30;3.77;;;;;;;21.30;61.89;63451.63;17297511;28;20267;-35
2022/10/18 16:14:52;;;;;;;12.30;3.80;;;;;;;20.81;60.18;63394.28;17283114;28;20251;-35
2022/10/18 16:23:16;;;;;;;9.47;3.33;;;;;;;20.56;59.82;63364.59;17315494;28;20217;-35
2022/10/18 16:31:34;;;;;;;8.83;3.40;;;;;;;20.41;60.05;63353.47;17298666;28;20218;-35
2022/10/18 16:39:51;;;;;;;10.43;3.57;;;;;;;20.10;61.69;63318.53;17311591;28;20228;-35
2022/10/18 16:48:13;;;;;;;8.83;3.70;;;;;;;19.87;63.27;63293.72;17294461;28;20640;-36
2022/10/18 16:56:32;;;;;;;7.90;3.20;;;;;;;19.91;62.75;63297.69;17299489;28;20617;-35
2022/10/18 17:04:50;;;;;;;9.93;4.60;;;;;;;20.45;61.20;63358.00;17303323;28;20240;-35
2022/10/18 17:13:07;;;;;;;7.43;3.93;;;;;;;20.77;61.58;63392.97;17305384;28;20589;-35
2022/10/18 17:21:27;;;;;;;6.53;3.63;;;;;;;20.94;61.89;63408.38;17291479;28;20630;-34
2022/10/18 17:29:44;;;;;;;8.23;3.77;;;;;;;20.95;62.64;63412.16;17319997;28;20642;-35
2022/10/18 17:38:03;;;;;;;10.03;3.80;;;;;;;21.02;62.81;63417.41;17331198;28;20220;-34
2022/10/18 17:46:20;;;;;;;7.13;3.70;;;;;;;21.08;63.01;63430.00;17320293;28;20221;-32
2022/10/18 17:54:38;;;;;;;11.50;3.10;;;;;;;21.12;63.08;63431.31;17335252;28;20224;-34
2022/10/18 18:02:56;;;;;;;25.30;6.90;;;;;;;21.02;63.50;63417.41;17303759;28;20278;-34
2022/10/18 18:11:16;;;;;;;58.57;12.20;;;;;;;21.17;64.06;63431.13;17311682;28;20450;-36
2022/10/18 18:19:33;;;;;;;46.17;10.63;;;;;;;20.97;64.71;63409.13;17307348;22;20224;-43
2022/10/18 18:27:51;;;;;;;47.40;10.90;;;;;;;21.05;64.53;63423.41;17228946;28;20229;-39
2022/10/18 18:36:09;;;;;;;36.17;11.60;;;;;;;21.07;64.40;63420.44;17187899;28;20225;-36
2022/10/18 18:44:27;;;;;;;35.80;10.30;;;;;;;21.10;64.24;63429.06;17190572;28;20293;-37
2022/10/18 18:52:44;;;;;;;18.47;4.17;;;;;;;20.31;63.45;63339.56;17127969;28;20225;-37
2022/10/18 19:01:07;;;;;;;23.73;5.53;;;;;;;20.92;62.20;63406.13;17148022;28;20268;-40
2022/10/18 19:09:26;;;;;;;16.07;3.80;;;;;;;21.03;63.13;63415.91;17166601;28;20239;-41
2022/10/18 19:17:44;;;;;;;14.17;3.97;;;;;;;21.12;63.72;63431.31;17164831;28;20272;-39
2022/10/18 19:26:09;;;;;;;14.53;4.17;;;;;;;21.07;64.73;63420.97;17175679;28;20324;-39
2022/10/18 19:34:29;;;;;;;19.33;4.30;;;;;;;21.18;65.43;63438.09;17158107;28;20316;-38
2022/10/18 19:42:46;;;;;;;14.13;4.20;;;;;;;21.25;65.83;63445.97;17149854;28;20249;-39
2022/10/18 19:51:07;;;;;;;23.37;4.80;;;;;;;21.29;66.45;63450.50;17144090;28;20299;-42
2022/10/18 19:59:24;;;;;;;14.60;3.50;;;;;;;21.32;66.89;63451.25;17161495;28;20240;-39
2022/10/18 20:07:44;;;;;;;13.27;3.70;;;;;;;21.35;67.40;63454.66;17130729;28;20221;-44
2022/10/18 20:16:01;;;;;;;12.73;3.67;;;;;;;21.38;67.51;63459.53;17153607;28;20230;-41
2022/10/18 20:24:19;;;;;;;15.57;4.10;;;;;;;21.43;68.17;63465.19;17163884;28;20194;-37
2022/10/18 20:32:36;;;;;;;9.87;3.73;;;;;;;21.48;68.01;63470.84;17138939;28;20321;-39
2022/10/18 20:40:54;;;;;;;32.33;4.40;;;;;;;21.43;66.71;63462.56;17144956;28;20234;-38
2022/10/18 20:49:13;;;;;;;14.67;3.60;;;;;;;21.41;66.98;63457.66;17205846;28;20245;-41
2022/10/18 20:57:32;;;;;;;14.43;4.33;;;;;;;21.41;66.92;63462.94;17193511;28;20217;-37
2022/10/18 21:05:48;;;;;;;8.57;3.40;;;;;;;21.40;66.77;63461.81;17186249;28;20218;-38
2022/10/18 21:14:07;;;;;;;13.40;3.00;;;;;;;21.37;66.88;63453.16;17189647;28;20229;-39
2022/10/18 21:22:24;;;;;;;10.13;4.33;;;;;;;21.38;66.62;63460.09;17174685;28;20241;-42
2022/10/18 21:30:43;;;;;;;9.53;4.10;;;;;;;21.38;66.42;63457.47;17179345;28;20603;-39
2022/10/18 21:38:59;;;;;;;12.53;3.03;;;;;;;21.34;66.34;63450.88;17179959;28;20243;-40
2022/10/18 21:47:18;;;;;;;15.07;4.93;;;;;;;21.34;66.17;63450.88;17184305;28;20303;-40
2022/10/18 21:55:36;;;;;;;12.97;3.80;;;;;;;21.33;65.98;63449.19;17171874;28;20600;-39
2022/10/18 22:03:56;;;;;;;9.37;3.17;;;;;;;21.31;65.92;63447.50;17189023;28;20198;-39
2022/10/18 22:12:13;;;;;;;10.87;3.57;;;;;;;21.32;65.77;63453.31;17169179;28;20230;-39
2022/10/18 22:20:31;;;;;;;9.20;3.53;;;;;;;21.32;65.44;63451.25;17169084;28;20724;-39
2022/10/18 22:28:54;;;;;;;11.00;4.40;;;;;;;21.31;65.41;63447.50;17176619;28;20560;-39
2022/10/18 22:37:13;;;;;;;6.37;2.97;;;;;;;21.32;65.35;63450.69;17181202;28;20592;-40
2022/10/18 22:45:29;;;;;;;12.40;3.50;;;;;;;21.33;65.22;63454.44;17150462;28;20750;-40
2022/10/18 22:53:48;;;;;;;9.10;2.93;;;;;;;21.33;65.10;63455.00;17078648;28;20504;-39
2022/10/18 23:02:04;;;;;;;12.13;3.87;;;;;;;21.33;64.88;63452.38;17104667;28;20650;-39
2022/10/18 23:10:23;;;;;;;9.20;3.10;;;;;;;21.30;65.00;63451.63;17183871;28;20657;-40
2022/10/18 23:18:39;;;;;;;6.90;3.47;;;;;;;21.28;64.84;63446.75;17185658;28;20584;-40
2022/10/18 23:26:58;;;;;;;8.87;2.93;;;;;;;21.29;64.96;63447.84;17168420;28;20585;-39
2022/10/18 23:35:15;;;;;;;9.83;3.10;;;;;;;21.29;64.84;63447.84;17195327;28;20592;-39
2022/10/18 23:43:33;;;;;;;9.17;4.30;;;;;;;21.28;64.59;63449.38;17189455;28;20569;-38
2022/10/18 23:51:50;;;;;;;11.77;3.20;;;;;;;21.29;64.56;63450.50;17184812;28;20600;-38
